Aérodrome :
LOGIN :

S'inscrire | Disclaimer

   EN    FR    IT 

 










Légende :    VFR   VFR Marginal   IFR   IFR Intensif   IFR Très Intensif
Visi : 
Plafond : 
>= 8 km
>= 3000ft
5 à 8 km
1000 à 3000 ft
1500m à 5 km
500 à 1000 ft
800 à 1500m
200 à 500 ft
< 800m
< 200 ft
Symboles :   Orages  Brouillard  Fortes neiges  Fortes précipitations  Vent > 20 kt
SIGMETs :   Divers  Orages  Givrage  Turbulence  Onde Orograph.  Cendres Volcan.






- Altitude de l'aérodrome : 184 ft
- Code IATA : BRU


EBBR - Bruxelles

DERNIER METAR :
  • 180450Z VRB02KT CAVOK 15/14 Q1013 NOSIG

METARs EXPIRÉS :
  • 180420Z VRB02KT 9999 FEW041 15/13 Q1013 NOSIG
  • 180350Z 04002KT 9999 FEW041 15/14 Q1013 NOSIG
  • 180320Z 02003KT 9999 FEW039 15/14 Q1013 NOSIG
  • 180250Z 04003KT 9999 FEW039 15/14 Q1013 NOSIG
  • 180220Z VRB01KT 9999 -RA BKN043 15/14 Q1013 NOSIG
  • 180150Z 13002KT 9999 BKN045 15/14 Q1013 NOSIG
  • 180120Z 05002KT 9999 BKN045 15/14 Q1013 NOSIG
  • 180050Z VRB01KT CAVOK 15/14 Q1014 NOSIG
  • 180020Z VRB01KT 9999 BKN049 15/13 Q1014 NOSIG

TAF TAF EBBR
Valide du 18 à 00h jusqu'au 19 à 06h UTC


172300Z 1800/1906 VRB03KT 8000 FEW040
PROB30
TEMPO 1802/1806 2500 BR
PROB40
TEMPO 1810/1818 VRB15G33KT 2000 SHRA TSRAGR SCT010 BKN018CB
BECMG 1811/1813 01010KT
BECMG 1818/1820 SCT006 BKN011
TEMPO 1821/1906 4000 BR BKN006



MET'MAP, la Météo Aéronautique d'un coup d'oeil ! - Copyright ORBIFLY Décembre 2007 - Disclaimer

ORBIFLY MET'MAP TEAM :

Programmation & Développement : Alexandra Zaïnal
Sur une idée originale de : Baudouin d'Aumeries
Soutien technique & logistique : Manuel Goepfert
Assistance : Marc-Olivier Méhu




SOURCES & CREDITS :

   NOAA